createdAt,value
2019-05-03T00:05:23.147Z,8.80
2019-05-03T00:11:24.969Z,8.70
2019-05-03T00:17:26.700Z,8.60
2019-05-03T00:23:28.392Z,8.40
2019-05-03T00:29:32.331Z,8.40
2019-05-03T00:35:51.987Z,8.30
2019-05-03T00:41:53.842Z,8.30
2019-05-03T00:47:55.324Z,8.20
2019-05-03T00:53:56.877Z,8.20
2019-05-03T00:59:58.586Z,8.20
2019-05-03T01:06:02.140Z,8.20
2019-05-03T01:12:03.944Z,8.10
2019-05-03T01:18:08.383Z,8.20
2019-05-03T01:24:09.988Z,8.10
2019-05-03T01:30:12.006Z,8.00
2019-05-03T01:36:14.169Z,8.00
2019-05-03T01:42:17.228Z,8.10
2019-05-03T01:48:29.599Z,7.90
2019-05-03T01:54:32.310Z,7.90
2019-05-03T02:00:33.938Z,7.90
2019-05-03T02:06:35.604Z,7.80
2019-05-03T02:12:37.042Z,7.80
2019-05-03T02:18:38.841Z,7.80
2019-05-03T02:24:42.231Z,7.80
2019-05-03T02:30:44.470Z,7.80
2019-05-03T02:36:49.327Z,7.80
2019-05-03T02:43:09.383Z,7.70
2019-05-03T02:49:15.587Z,7.50
2019-05-03T02:55:17.586Z,7.40
2019-05-03T03:01:20.647Z,7.40
2019-05-03T03:07:22.629Z,7.30
2019-05-03T03:13:25.590Z,7.30
2019-05-03T03:19:28.676Z,7.20
2019-05-03T03:25:36.274Z,7.00
2019-05-03T03:31:48.604Z,7.10
2019-05-03T03:37:51.691Z,7.10
2019-05-03T03:43:55.791Z,7.00
2019-05-03T03:49:57.775Z,7.00
2019-05-03T03:56:01.903Z,6.90
2019-05-03T04:02:05.946Z,6.90
2019-05-03T04:08:08.084Z,6.90
2019-05-03T04:14:20.280Z,6.90
2019-05-03T04:20:26.932Z,6.80
2019-05-03T04:26:29.883Z,6.80
2019-05-03T04:32:31.796Z,6.90
2019-05-03T04:38:35.446Z,7.00
2019-05-03T04:44:36.845Z,7.10
2019-05-03T04:50:38.521Z,7.20
2019-05-03T04:56:40.000Z,7.20
2019-05-03T05:02:41.482Z,7.20
2019-05-03T05:08:45.834Z,7.30
2019-05-03T05:14:46.436Z,7.40
2019-05-03T05:20:52.815Z,7.70
2019-05-03T05:26:56.265Z,7.90
2019-05-03T05:32:57.854Z,7.80
2019-05-03T05:38:59.490Z,7.90
2019-05-03T05:45:01.043Z,7.70
2019-05-03T05:51:04.429Z,7.90
2019-05-03T05:57:25.617Z,7.80
2019-05-03T06:03:27.334Z,8.10
2019-05-03T06:09:30.656Z,7.70
2019-05-03T06:15:54.820Z,7.70
2019-05-03T06:21:57.349Z,8.00
2019-05-03T06:28:00.414Z,8.60
2019-05-03T06:34:02.271Z,8.40
2019-05-03T06:40:06.191Z,8.50
2019-05-03T06:46:07.986Z,8.70
2019-05-03T06:52:09.538Z,8.70
2019-05-03T06:58:11.507Z,8.60
2019-05-03T07:04:26.771Z,8.90
2019-05-03T07:10:35.265Z,8.80
2019-05-03T07:16:38.246Z,8.70
2019-05-03T07:22:39.716Z,8.90
2019-05-03T07:28:46.897Z,9.20
2019-05-03T07:34:45.306Z,9.50
2019-05-03T07:40:46.877Z,10.00
2019-05-03T07:46:48.317Z,10.20
2019-05-03T07:52:49.793Z,10.00
2019-05-03T07:58:59.772Z,9.70
2019-05-03T08:04:56.181Z,9.50
2019-05-03T08:10:57.663Z,9.60
2019-05-03T08:16:59.047Z,9.60
2019-05-03T08:23:00.628Z,9.80
2019-05-03T08:29:13.394Z,10.00
2019-05-03T08:35:15.264Z,10.40
2019-05-03T08:41:18.890Z,10.90
2019-05-03T08:47:20.589Z,11.40
2019-05-03T08:53:22.225Z,11.80
2019-05-03T08:59:29.781Z,11.10
2019-05-03T09:05:27.166Z,10.60
2019-05-03T09:11:34.057Z,10.50
2019-05-03T09:17:32.443Z,11.50
2019-05-03T09:23:35.712Z,12.10
2019-05-03T09:29:43.187Z,11.70
2019-05-03T09:35:40.690Z,11.30
2019-05-03T09:41:42.419Z,11.30
2019-05-03T09:47:44.859Z,11.70
2019-05-03T09:53:57.009Z,11.20
2019-05-03T10:00:00.112Z,10.60
2019-05-03T10:06:01.932Z,10.80
2019-05-03T10:12:05.682Z,10.90
2019-05-03T10:18:11.104Z,11.30
2019-05-03T10:24:12.281Z,11.80
2019-05-03T10:30:17.923Z,12.50
2019-05-03T10:36:20.119Z,11.90
2019-05-03T10:42:21.622Z,11.30
2019-05-03T10:48:24.813Z,12.00
2019-05-03T10:54:26.481Z,12.40
2019-05-03T11:00:50.235Z,11.80
2019-05-03T11:06:31.666Z,11.60
2019-05-03T11:12:34.721Z,12.30
2019-05-03T11:18:36.331Z,12.70
2019-05-03T11:24:37.894Z,12.70
2019-05-03T11:30:52.228Z,12.00
2019-05-03T11:37:01.954Z,12.00
2019-05-03T11:43:04.709Z,12.80
2019-05-03T11:49:06.279Z,12.50
2019-05-03T11:55:11.723Z,11.40
2019-05-03T12:01:19.690Z,11.40
2019-05-03T12:07:38.837Z,11.40
2019-05-03T12:13:36.033Z,11.70
2019-05-03T12:19:38.818Z,12.30
2019-05-03T12:25:41.703Z,12.60
2019-05-03T12:31:45.579Z,13.30
2019-05-03T12:37:47.154Z,12.90
2019-05-03T12:43:48.625Z,12.50
2019-05-03T12:49:50.107Z,12.40
2019-05-03T12:55:51.981Z,12.50
2019-05-03T13:02:10.449Z,12.70
2019-05-03T13:08:31.486Z,12.80
2019-05-03T13:14:34.586Z,13.10
2019-05-03T13:20:36.213Z,13.40
2019-05-03T13:26:37.618Z,12.50
2019-05-03T13:32:39.255Z,12.00
2019-05-03T13:38:40.730Z,11.80
2019-05-03T13:44:42.310Z,11.70
2019-05-03T13:50:44.619Z,11.70
2019-05-03T13:56:47.231Z,12.20
2019-05-03T14:02:48.968Z,12.40
2019-05-03T14:08:50.595Z,12.60
2019-05-03T14:14:52.337Z,12.40
2019-05-03T14:21:07.642Z,12.90
2019-05-03T14:27:09.255Z,13.00
2019-05-03T14:33:10.946Z,12.60
2019-05-03T14:39:15.211Z,11.70
2019-05-03T14:45:17.638Z,11.30
2019-05-03T14:51:19.618Z,11.60
2019-05-03T14:57:25.727Z,12.40
2019-05-03T15:03:30.213Z,12.10
2019-05-03T15:09:31.941Z,11.70
2019-05-03T15:15:34.742Z,11.60
2019-05-03T15:21:36.416Z,11.50
2019-05-03T15:27:38.008Z,11.60
2019-05-03T15:33:39.636Z,11.90
2019-05-03T15:39:41.204Z,12.80
2019-05-03T15:45:56.476Z,12.30
2019-05-03T15:51:57.963Z,11.90
2019-05-03T15:58:00.445Z,11.70
2019-05-03T16:04:01.992Z,11.80
2019-05-03T16:10:04.675Z,11.90
2019-05-03T16:16:06.392Z,12.00
2019-05-03T16:22:07.869Z,12.00
2019-05-03T16:28:11.499Z,11.70
2019-05-03T16:34:13.156Z,11.60
2019-05-03T16:40:16.790Z,11.80
2019-05-03T16:46:18.515Z,11.80
2019-05-03T16:52:20.168Z,11.40
2019-05-03T16:58:21.603Z,11.10
2019-05-03T17:04:34.678Z,10.90
2019-05-03T17:10:37.974Z,10.50
2019-05-03T17:16:40.998Z,10.40
2019-05-03T17:22:42.442Z,10.50
2019-05-03T17:28:44.735Z,10.40
2019-05-03T17:34:46.697Z,10.30
2019-05-03T17:40:56.021Z,10.10
2019-05-03T17:46:57.647Z,9.90
2019-05-03T17:53:01.277Z,9.80
2019-05-03T17:59:04.850Z,9.70
2019-05-03T18:05:25.210Z,9.70
2019-05-03T18:11:28.973Z,9.50
2019-05-03T18:17:30.450Z,9.40
2019-05-03T18:23:31.980Z,9.40
2019-05-03T18:29:34.585Z,9.20
2019-05-03T18:35:38.282Z,9.10
2019-05-03T18:41:39.841Z,9.10
2019-05-03T18:47:44.974Z,9.00
2019-05-03T18:53:45.099Z,8.80
2019-05-03T18:59:46.633Z,8.50
2019-05-03T19:05:50.221Z,8.40
2019-05-03T19:11:59.553Z,8.30
2019-05-03T19:18:19.681Z,8.20
2019-05-03T19:24:21.231Z,8.10
2019-05-03T19:30:25.796Z,8.20
2019-05-03T19:36:27.417Z,8.20
2019-05-03T19:42:28.861Z,8.20
2019-05-03T19:48:30.437Z,8.30
2019-05-03T19:54:32.057Z,8.30
2019-05-03T20:00:38.403Z,8.30
2019-05-03T20:06:58.285Z,8.20
2019-05-03T20:13:00.201Z,8.20
2019-05-03T20:19:16.730Z,8.20
2019-05-03T20:25:05.619Z,8.10
2019-05-03T20:31:09.073Z,8.10
2019-05-03T20:37:11.114Z,8.10
2019-05-03T20:43:17.314Z,8.20
2019-05-03T20:49:18.932Z,8.10
2019-05-03T20:55:20.407Z,8.10
2019-05-03T21:01:21.988Z,8.00
2019-05-03T21:07:25.834Z,8.00
2019-05-03T21:13:39.902Z,7.90
2019-05-03T21:19:35.328Z,7.90
2019-05-03T21:26:02.192Z,8.00
2019-05-03T21:31:45.182Z,8.00
2019-05-03T21:37:46.636Z,8.00
2019-05-03T21:43:48.221Z,8.00
2019-05-03T21:49:51.887Z,8.00
2019-05-03T21:55:53.437Z,7.90
2019-05-03T22:01:55.262Z,7.90
2019-05-03T22:07:56.705Z,7.90
2019-05-03T22:14:01.702Z,7.80
2019-05-03T22:23:01.255Z,7.80
2019-05-03T22:36:29.368Z,7.90
2019-05-03T22:42:31.929Z,7.80
2019-05-03T22:48:33.396Z,7.60
2019-05-03T22:54:34.970Z,7.40
2019-05-03T23:00:36.591Z,7.40
2019-05-03T23:06:37.957Z,7.30
2019-05-03T23:12:39.411Z,7.20
2019-05-03T23:18:40.915Z,7.20
2019-05-03T23:24:42.392Z,7.20
2019-05-03T23:30:43.970Z,7.10
2019-05-03T23:36:45.595Z,7.00
2019-05-03T23:42:47.190Z,6.90
2019-05-03T23:48:48.660Z,6.70
2019-05-03T23:54:50.710Z,6.40
